Bad Hofgastein, Austria
Current Conditions -  °F | °C
As of 10:20 PM on Tuesday 21 Oct 2014 (Local Time) from LOWS Reporting Station
Thunderstorm Thunderstorm  
Wind Chill: 55°   Ceiling: 5500
Heat Index: 55°   Visibility: 6mi
Dew Point: 54°   Wind: 7mph
Humidity: 94%   Direction: 170°S
Pressure: 29.65"   Gusts: NA
Location:  47.17°N, 13.1°E
Report Text: LOWS 212020Z 17006KT 140V200 9999 VCTS FEW035 FEW050CB BKN055 13/12 Q1004 WS ALL RWY TEMPO 27015G40KT 4000 TSRA
Loading
Personal Weather Stations






























Interactive Weather Map
Tropical Storm Tracking
New forecast layout! Learn more

10-Day Weather Forecast

Advertisements
Track Severe Weather on mobile